Colfax, New Mexico
Current Conditions -  °F | °C
As of 6:53 AM on Monday 22 Dec 2014 (Local Time) from KRTN Reporting Station
Broken Clouds Broken Clouds  
Wind Chill: 21°   Ceiling: 7500
Heat Index: 30°   Visibility: 10mi
Dew Point: 25°   Wind: 10mph
Humidity: 82%   Direction: 40°NE
Pressure: 29.76"   Gusts: NA
Location:  36.7885°N, 104.452°W
Report Text: KRTN 221353Z AUTO 04009KT 10SM BKN075 M01/M04 A2976 RMK AO2 SLP068 T10111039
Loading
Personal Weather Stations






























Interactive Weather Map New forecast layout! Learn more

10-Day Weather Forecast

Advertisements
Track Severe Weather on mobile